createdAt,value
2018-09-08T00:00:25.975Z,99190.27
2018-09-08T00:00:57.131Z,99190.14
2018-09-08T00:01:28.236Z,99188.25
2018-09-08T00:01:59.363Z,99189.94
2018-09-08T00:02:30.480Z,99184.16
2018-09-08T00:03:01.644Z,99190.28
2018-09-08T00:03:32.789Z,99189.33
2018-09-08T00:04:03.899Z,99190.08
2018-09-08T00:04:35.017Z,99187.56
2018-09-08T00:05:06.145Z,99190.72
2018-09-08T00:05:37.259Z,99188.24
2018-09-08T00:06:08.432Z,99187.42
2018-09-08T00:06:39.547Z,99187.30
2018-09-08T00:07:10.663Z,99190.79
2018-09-08T00:07:41.779Z,99192.11
2018-09-08T00:08:12.892Z,99193.44
2018-09-08T00:08:44.044Z,99190.70
2018-09-08T00:09:15.159Z,99193.93
2018-09-08T00:09:46.273Z,99188.75
2018-09-08T00:10:17.391Z,99185.73
2018-09-08T00:10:48.512Z,99188.95
2018-09-08T00:11:19.728Z,99196.33
2018-09-08T00:11:50.841Z,99191.72
2018-09-08T00:12:21.959Z,99195.58
2018-09-08T00:12:53.120Z,99196.91
2018-09-08T00:13:24.241Z,99194.49
2018-09-08T00:13:55.389Z,99194.86
2018-09-08T00:14:26.495Z,99195.44
2018-09-08T00:14:57.613Z,99194.12
2018-09-08T00:15:28.737Z,99201.58
2018-09-08T00:15:59.854Z,99190.14
2018-09-08T00:16:30.974Z,99195.81
2018-09-08T00:17:02.131Z,99198.84
2018-09-08T00:17:33.256Z,99197.66
2018-09-08T00:18:04.383Z,99199.72
2018-09-08T00:18:36.052Z,99193.93
2018-09-08T00:19:07.203Z,99197.78
2018-09-08T00:19:38.307Z,99198.91
2018-09-08T00:20:09.416Z,99190.00
2018-09-08T00:20:40.542Z,99199.03
2018-09-08T00:21:11.651Z,99198.08
2018-09-08T00:21:42.820Z,99196.39
2018-09-08T00:22:13.932Z,99195.44
2018-09-08T00:22:45.047Z,99196.64
2018-09-08T00:23:16.170Z,99192.55
2018-09-08T00:23:47.286Z,99193.66
2018-09-08T00:24:18.425Z,99195.36
2018-09-08T00:24:49.543Z,99190.31
2018-09-08T00:25:20.685Z,99195.48
2018-09-08T00:25:51.804Z,99194.74
2018-09-08T00:26:22.958Z,99190.77
2018-09-08T00:26:54.073Z,99190.64
2018-09-08T00:27:25.185Z,99189.80
2018-09-08T00:27:56.292Z,99195.69
2018-09-08T00:28:27.413Z,99193.50
2018-09-08T00:28:58.531Z,99190.02
2018-09-08T00:29:29.690Z,99195.31
2018-09-08T00:30:00.796Z,99193.25
2018-09-08T00:30:31.909Z,99196.39
2018-09-08T00:31:03.056Z,99188.67
2018-09-08T00:31:34.172Z,99191.41
2018-09-08T00:32:05.304Z,99192.28
2018-09-08T00:33:06.887Z,99191.66
2018-09-08T00:33:37.999Z,99195.06
2018-09-08T00:34:09.119Z,99190.14
2018-09-08T00:34:40.229Z,99190.51
2018-09-08T00:35:11.985Z,99192.17
2018-09-08T00:35:43.162Z,99188.20
2018-09-08T00:36:14.278Z,99191.71
2018-09-08T00:36:45.390Z,99189.19
2018-09-08T00:37:16.516Z,99188.49
2018-09-08T00:37:47.638Z,99190.56
2018-09-08T00:38:18.796Z,99190.31
2018-09-08T00:38:49.932Z,99190.20
2018-09-08T00:39:21.044Z,99184.19
2018-09-08T00:39:52.151Z,99187.09
2018-09-08T00:40:23.295Z,99186.84
2018-09-08T00:40:54.416Z,99187.79
2018-09-08T00:41:25.524Z,99187.79
2018-09-08T00:41:56.632Z,99186.22
2018-09-08T00:42:27.739Z,99186.80
2018-09-08T00:42:58.847Z,99189.19
2018-09-08T00:43:30.001Z,99191.59
2018-09-08T00:44:01.119Z,99187.86
2018-09-08T00:44:32.232Z,99189.52
2018-09-08T00:45:03.385Z,99188.20
2018-09-08T00:45:34.502Z,99189.64
2018-09-08T00:46:05.620Z,99189.77
2018-09-08T00:46:36.731Z,99198.20
2018-09-08T00:47:07.844Z,99191.78
2018-09-08T00:47:38.956Z,99196.62
2018-09-08T00:48:10.072Z,99190.95
2018-09-08T00:48:41.196Z,99188.30
2018-09-08T00:49:12.295Z,99197.20
2018-09-08T00:49:43.408Z,99192.48
2018-09-08T00:50:14.576Z,99194.19
2018-09-08T00:50:45.711Z,99193.11
2018-09-08T00:51:16.878Z,99193.60
2018-09-08T00:51:48.044Z,99198.29
2018-09-08T00:52:19.165Z,99197.83
2018-09-08T00:52:50.324Z,99195.55
2018-09-08T00:53:21.516Z,99203.75
2018-09-08T00:53:52.652Z,99193.98
2018-09-08T00:54:23.765Z,99198.59
2018-09-08T00:54:54.882Z,99201.12
2018-09-08T00:55:26.102Z,99201.73
2018-09-08T00:55:57.219Z,99197.96
2018-09-08T00:56:28.390Z,99198.70
2018-09-08T00:56:59.508Z,99194.61
2018-09-08T00:57:30.742Z,99194.23
2018-09-08T00:58:01.871Z,99197.38
2018-09-08T00:58:33.105Z,99190.27
2018-09-08T00:59:04.305Z,99196.43
2018-09-08T00:59:35.477Z,99193.50
2018-09-08T01:00:06.700Z,99192.29
2018-09-08T01:00:37.925Z,99197.12
2018-09-08T01:01:09.060Z,99196.39
2018-09-08T01:01:40.175Z,99196.02
2018-09-08T01:02:11.336Z,99193.97
2018-09-08T01:02:42.521Z,99192.60
2018-09-08T01:03:13.709Z,99192.98
2018-09-08T01:03:44.838Z,99194.25
2018-09-08T01:04:16.008Z,99192.47
2018-09-08T01:04:47.172Z,99196.19
2018-09-08T01:05:18.372Z,99189.77
2018-09-08T01:05:49.493Z,99194.33
2018-09-08T01:06:20.669Z,99190.96
2018-09-08T01:06:51.836Z,99192.28
2018-09-08T01:07:23.012Z,99189.64
2018-09-08T01:07:54.198Z,99190.09
2018-09-08T01:08:25.380Z,99192.86
2018-09-08T01:08:56.609Z,99189.84
2018-09-08T01:09:27.794Z,99198.77
2018-09-08T01:09:59.070Z,99187.31
2018-09-08T01:10:30.298Z,99182.88
2018-09-08T01:11:01.576Z,99191.16
2018-09-08T01:11:32.770Z,99194.42
2018-09-08T01:12:03.926Z,99185.53
2018-09-08T01:12:35.106Z,99193.09
2018-09-08T01:13:06.263Z,99193.09
2018-09-08T01:13:37.363Z,99195.49
2018-09-08T01:14:08.574Z,99191.09
2018-09-08T01:14:39.688Z,99192.66
2018-09-08T01:15:10.916Z,99190.33
2018-09-08T01:15:42.036Z,99190.44
2018-09-08T01:16:13.206Z,99191.52
2018-09-08T01:16:44.429Z,99195.69
2018-09-08T01:17:15.653Z,99194.19
2018-09-08T01:17:46.783Z,99195.25
2018-09-08T01:18:17.949Z,99191.85
2018-09-08T01:18:49.074Z,99197.75
2018-09-08T01:19:20.272Z,99194.36
2018-09-08T01:19:51.388Z,99196.06
2018-09-08T01:20:22.545Z,99193.03
2018-09-08T01:20:53.768Z,99201.55
2018-09-08T01:21:25.003Z,99192.78
2018-09-08T01:21:56.204Z,99198.19
2018-09-08T01:22:27.326Z,99194.30
2018-09-08T01:22:58.444Z,99199.33
2018-09-08T01:23:29.669Z,99198.98
2018-09-08T01:24:00.878Z,99195.02
2018-09-08T01:24:32.073Z,99197.30
2018-09-08T01:25:03.202Z,99196.80
2018-09-08T01:25:34.352Z,99200.20
2018-09-08T01:26:05.586Z,99196.11
2018-09-08T01:26:36.820Z,99201.52
2018-09-08T01:27:08.068Z,99202.96
2018-09-08T01:27:39.191Z,99198.98
2018-09-08T01:28:10.310Z,99195.97
2018-09-08T01:28:41.435Z,99197.30
2018-09-08T01:29:12.597Z,99203.80
2018-09-08T01:29:43.715Z,99200.20
2018-09-08T01:30:14.888Z,99202.50
2018-09-08T01:30:46.067Z,99205.52
2018-09-08T01:31:17.349Z,99208.54
2018-09-08T01:31:48.537Z,99207.59
2018-09-08T01:32:19.656Z,99206.39
2018-09-08T01:32:50.865Z,99210.81
2018-09-08T01:33:22.033Z,99208.77
2018-09-08T01:33:53.155Z,99208.14
2018-09-08T01:34:24.332Z,99209.20
2018-09-08T01:34:55.469Z,99207.13
2018-09-08T01:35:26.583Z,99212.42
2018-09-08T01:35:57.732Z,99217.34
2018-09-08T01:36:28.924Z,99209.02
2018-09-08T01:37:00.089Z,99212.16
2018-09-08T01:37:31.236Z,99208.68
2018-09-08T01:38:02.416Z,99215.37
2018-09-08T01:38:33.621Z,99210.58
2018-09-08T01:39:04.736Z,99215.87
2018-09-08T01:39:35.904Z,99214.28
2018-09-08T01:40:07.022Z,99216.06
2018-09-08T01:40:38.140Z,99216.44
2018-09-08T01:41:09.262Z,99216.44
2018-09-08T01:41:40.442Z,99215.61
2018-09-08T01:42:11.632Z,99215.75
2018-09-08T01:42:42.831Z,99217.71
2018-09-08T01:43:13.944Z,99216.19
2018-09-08T01:43:45.100Z,99220.99
2018-09-08T01:44:16.222Z,99217.28
2018-09-08T01:44:47.385Z,99214.06
2018-09-08T01:45:18.575Z,99221.40
2018-09-08T01:45:49.723Z,99218.38
2018-09-08T01:46:20.899Z,99213.95
2018-09-08T01:46:52.031Z,99212.74
2018-09-08T01:47:23.181Z,99216.11
2018-09-08T01:47:54.296Z,99220.45
2018-09-08T01:48:25.464Z,99215.16
2018-09-08T01:48:56.624Z,99219.62
2018-09-08T01:49:27.736Z,99216.97
2018-09-08T01:49:58.905Z,99215.21
2018-09-08T01:50:30.078Z,99215.21
2018-09-08T01:51:01.270Z,99217.19
2018-09-08T01:51:32.511Z,99221.53
2018-09-08T01:52:03.630Z,99212.95
2018-09-08T01:52:34.796Z,99217.23
2018-09-08T01:53:05.935Z,99215.66
2018-09-08T01:53:37.041Z,99217.14
2018-09-08T01:54:08.155Z,99220.16
2018-09-08T01:54:39.278Z,99220.53
2018-09-08T01:55:10.557Z,99225.64
2018-09-08T01:55:41.684Z,99219.67
2018-09-08T01:56:12.791Z,99218.69
2018-09-08T01:56:43.913Z,99217.55
2018-09-08T01:57:15.090Z,99217.82
2018-09-08T01:57:46.247Z,99220.27
2018-09-08T01:58:17.489Z,99220.84
2018-09-08T01:58:48.613Z,99213.96
2018-09-08T01:59:19.735Z,99221.67
2018-09-08T01:59:50.859Z,99220.01
2018-09-08T02:00:22.025Z,99217.55
2018-09-08T02:00:53.223Z,99222.66
2018-09-08T02:01:24.390Z,99223.86
2018-09-08T02:01:55.503Z,99226.77
2018-09-08T02:02:26.616Z,99224.13
2018-09-08T02:02:57.777Z,99222.58
2018-09-08T02:03:28.968Z,99222.31
2018-09-08T02:04:00.132Z,99225.08
2018-09-08T02:04:31.321Z,99229.98
2018-09-08T02:05:02.495Z,99228.20
2018-09-08T02:05:33.615Z,99232.06
2018-09-08T02:06:04.729Z,99223.75
2018-09-08T02:06:35.899Z,99232.06
2018-09-08T02:07:07.052Z,99229.53
2018-09-08T02:07:38.230Z,99225.30
2018-09-08T02:08:09.386Z,99228.52
2018-09-08T02:08:40.557Z,99231.73
2018-09-08T02:09:11.688Z,99224.39
2018-09-08T02:09:42.819Z,99221.94
2018-09-08T02:10:13.944Z,99222.51
2018-09-08T02:10:45.056Z,99221.90
2018-09-08T02:11:16.220Z,99224.77
2018-09-08T02:11:47.344Z,99225.64
2018-09-08T02:12:18.523Z,99222.73
2018-09-08T02:12:49.704Z,99227.16
2018-09-08T02:13:20.868Z,99226.16
2018-09-08T02:13:52.204Z,99226.09
2018-09-08T02:14:23.410Z,99224.09
2018-09-08T02:14:54.580Z,99225.97
2018-09-08T02:15:25.709Z,99225.14
2018-09-08T02:15:56.834Z,99226.57
2018-09-08T02:16:27.953Z,99222.00
2018-09-08T02:16:59.178Z,99229.86
2018-09-08T02:17:30.301Z,99220.12
2018-09-08T02:18:01.447Z,99225.67
2018-09-08T02:18:32.567Z,99226.92
2018-09-08T02:19:03.697Z,99222.50
2018-09-08T02:19:34.872Z,99222.39
2018-09-08T02:20:06.048Z,99222.95
2018-09-08T02:20:37.214Z,99226.09
2018-09-08T02:21:08.399Z,99228.23
2018-09-08T02:21:39.581Z,99226.09
2018-09-08T02:22:10.725Z,99225.97
2018-09-08T02:22:41.900Z,99224.92
2018-09-08T02:23:13.069Z,99226.32
2018-09-08T02:23:44.196Z,99226.20
2018-09-08T02:24:15.420Z,99227.68
2018-09-08T02:24:46.630Z,99227.12
2018-09-08T02:25:17.766Z,99229.19
2018-09-08T02:25:48.950Z,99220.88
2018-09-08T02:26:20.140Z,99226.17
2018-09-08T02:26:51.272Z,99224.09
2018-09-08T02:27:22.450Z,99228.55
2018-09-08T02:27:53.664Z,99230.33
2018-09-08T02:28:24.831Z,99226.02
2018-09-08T02:28:55.996Z,99231.30
2018-09-08T02:29:27.120Z,99226.02
2018-09-08T02:29:58.271Z,99226.85
2018-09-08T02:30:29.501Z,99229.61
2018-09-08T02:31:00.741Z,99234.89
2018-09-08T02:31:31.900Z,99232.70
2018-09-08T02:32:03.082Z,99233.20
2018-09-08T02:32:34.235Z,99233.66
2018-09-08T02:33:05.416Z,99232.81
2018-09-08T02:33:36.539Z,99231.98
2018-09-08T02:34:07.667Z,99235.20
2018-09-08T02:34:38.885Z,99229.91
2018-09-08T02:35:10.000Z,99233.88
2018-09-08T02:35:41.181Z,99233.77
2018-09-08T02:36:12.311Z,99228.97
2018-09-08T02:36:43.439Z,99236.41
2018-09-08T02:37:14.617Z,99239.43
2018-09-08T02:37:45.803Z,99235.95
2018-09-08T02:38:16.980Z,99234.14
2018-09-08T02:38:48.188Z,99236.41
2018-09-08T02:39:19.307Z,99236.78
2018-09-08T02:39:50.573Z,99241.02
2018-09-08T02:40:21.728Z,99239.92
2018-09-08T02:40:52.961Z,99242.64
2018-09-08T02:41:24.108Z,99237.46
2018-09-08T02:41:55.288Z,99238.14
2018-09-08T02:42:26.477Z,99233.80
2018-09-08T02:42:57.724Z,99234.84
2018-09-08T02:43:28.904Z,99238.52
2018-09-08T02:44:00.082Z,99235.22
2018-09-08T02:44:31.259Z,99235.15
2018-09-08T02:45:02.378Z,99232.69
2018-09-08T02:45:33.608Z,99234.13
2018-09-08T02:46:04.840Z,99239.14
2018-09-08T02:46:36.013Z,99240.30
2018-09-08T02:47:07.135Z,99238.98
2018-09-08T02:47:38.247Z,99235.20
2018-09-08T02:48:09.413Z,99235.50
2018-09-08T02:48:40.600Z,99235.61
2018-09-08T02:49:11.773Z,99235.72
2018-09-08T02:49:42.942Z,99234.02
2018-09-08T02:50:14.112Z,99235.45
2018-09-08T02:50:45.347Z,99238.47
2018-09-08T02:51:16.553Z,99241.48
2018-09-08T02:51:47.824Z,99233.18
2018-09-08T02:52:19.057Z,99240.84
2018-09-08T02:52:50.211Z,99240.46
2018-09-08T02:53:21.400Z,99236.60
2018-09-08T02:53:52.576Z,99237.06
2018-09-08T02:54:23.741Z,99234.31
2018-09-08T02:54:54.856Z,99233.47
2018-09-08T02:55:26.026Z,99235.83
2018-09-08T02:55:57.152Z,99238.25
2018-09-08T02:56:28.319Z,99238.06
2018-09-08T02:56:59.448Z,99237.73
2018-09-08T02:57:30.665Z,99237.06
2018-09-08T02:58:01.845Z,99241.22
2018-09-08T02:58:32.997Z,99234.39
2018-09-08T02:59:04.120Z,99234.39
2018-09-08T02:59:35.297Z,99240.44
2018-09-08T03:00:06.461Z,99240.81
2018-09-08T03:00:37.596Z,99235.03
2018-09-08T03:01:08.813Z,99244.40
2018-09-08T03:01:39.995Z,99238.84
2018-09-08T03:02:11.118Z,99244.97
2018-09-08T03:02:42.295Z,99242.88
2018-09-08T03:03:13.463Z,99241.22
2018-09-08T03:03:44.589Z,99243.38
2018-09-08T03:04:15.777Z,99238.20
2018-09-08T03:04:46.976Z,99240.08
2018-09-08T03:05:18.132Z,99240.08
2018-09-08T03:05:49.315Z,99237.17
2018-09-08T03:06:20.431Z,99236.69
2018-09-08T03:06:51.556Z,99233.70
2018-09-08T03:07:22.737Z,99240.38
2018-09-08T03:07:53.902Z,99236.07
2018-09-08T03:08:25.117Z,99242.67
2018-09-08T03:08:56.354Z,99242.30
2018-09-08T03:09:27.490Z,99241.43
2018-09-08T03:09:58.668Z,99236.14
2018-09-08T03:10:29.870Z,99240.48
2018-09-08T03:11:01.101Z,99237.84
2018-09-08T03:11:32.268Z,99242.38
2018-09-08T03:12:03.501Z,99245.99
2018-09-08T03:12:34.628Z,99242.21
2018-09-08T03:13:05.747Z,99241.11
2018-09-08T03:13:36.959Z,99247.34
2018-09-08T03:14:08.125Z,99236.88
2018-09-08T03:14:39.312Z,99245.85
2018-09-08T03:15:10.487Z,99238.87
2018-09-08T03:15:41.699Z,99245.55
2018-09-08T03:16:12.877Z,99242.63
2018-09-08T03:16:44.049Z,99239.72
2018-09-08T03:17:15.264Z,99239.07
2018-09-08T03:17:46.495Z,99242.09
2018-09-08T03:18:17.611Z,99246.05
2018-09-08T03:18:48.732Z,99243.25
2018-09-08T03:19:19.906Z,99247.32
2018-09-08T03:19:51.314Z,99243.53
2018-09-08T03:20:22.450Z,99244.20
2018-09-08T03:20:53.609Z,99242.16
2018-09-08T03:21:24.716Z,99241.77
2018-09-08T03:21:55.830Z,99241.61
2018-09-08T03:22:27.025Z,99245.19
2018-09-08T03:22:58.135Z,99248.39
2018-09-08T03:23:29.251Z,99244.92
2018-09-08T03:24:00.425Z,99242.84
2018-09-08T03:24:31.652Z,99244.99
2018-09-08T03:25:02.855Z,99241.03
2018-09-08T03:25:34.063Z,99243.49
2018-09-08T03:26:05.176Z,99239.91
2018-09-08T03:26:36.349Z,99245.19
2018-09-08T03:27:07.569Z,99239.80
2018-09-08T03:27:38.731Z,99242.06
2018-09-08T03:28:09.910Z,99244.70
2018-09-08T03:28:41.180Z,99242.66
2018-09-08T03:29:12.335Z,99248.56
2018-09-08T03:29:43.505Z,99242.34
2018-09-08T03:30:14.728Z,99251.48
2018-09-08T03:30:45.856Z,99245.19
2018-09-08T03:31:17.018Z,99248.94
2018-09-08T03:31:48.144Z,99246.67
2018-09-08T03:32:19.257Z,99243.94
2018-09-08T03:32:50.375Z,99253.28
2018-09-08T03:33:21.537Z,99244.59
2018-09-08T03:33:52.724Z,99248.22
2018-09-08T03:34:23.899Z,99248.77
2018-09-08T03:34:55.073Z,99246.13
2018-09-08T03:35:26.281Z,99246.80
2018-09-08T03:35:57.441Z,99247.84
2018-09-08T03:36:28.712Z,99250.59
2018-09-08T03:36:59.823Z,99244.09
2018-09-08T03:37:30.944Z,99243.23
2018-09-08T03:38:02.140Z,99245.87
2018-09-08T03:38:33.337Z,99243.89
2018-09-08T03:39:04.509Z,99251.70
2018-09-08T03:39:35.692Z,99253.13
2018-09-08T03:40:06.799Z,99252.41
2018-09-08T03:40:37.985Z,99247.58
2018-09-08T03:41:09.164Z,99248.44
2018-09-08T03:41:40.385Z,99250.88
2018-09-08T03:42:11.550Z,99253.91
2018-09-08T03:42:42.725Z,99248.63
2018-09-08T03:43:13.855Z,99250.50
2018-09-08T03:43:45.081Z,99252.96
2018-09-08T03:44:16.261Z,99257.58
2018-09-08T03:44:47.386Z,99247.47
2018-09-08T03:45:18.496Z,99253.52
2018-09-08T03:45:49.672Z,99252.19
2018-09-08T03:46:20.783Z,99250.49
2018-09-08T03:46:51.940Z,99255.32
2018-09-08T03:47:23.048Z,99254.07
2018-09-08T03:47:54.213Z,99255.05
2018-09-08T03:48:25.470Z,99261.99
2018-09-08T03:48:56.593Z,99256.36
2018-09-08T03:49:27.769Z,99254.83
2018-09-08T03:49:58.940Z,99257.58
2018-09-08T03:50:30.060Z,99254.83
2018-09-08T03:51:01.225Z,99256.53
2018-09-08T03:51:32.411Z,99260.50
2018-09-08T03:52:03.563Z,99257.09
2018-09-08T03:52:34.809Z,99259.73
2018-09-08T03:53:05.955Z,99260.22
2018-09-08T03:53:37.080Z,99255.77
2018-09-08T03:54:08.252Z,99260.11
2018-09-08T03:54:39.424Z,99259.63
2018-09-08T03:55:10.594Z,99264.45
2018-09-08T03:55:41.708Z,99262.27
2018-09-08T03:56:12.882Z,99257.09
2018-09-08T03:56:44.057Z,99265.02
2018-09-08T03:57:15.196Z,99258.14
2018-09-08T03:57:46.390Z,99255.98
2018-09-08T03:58:17.517Z,99262.97
2018-09-08T03:58:48.680Z,99265.12
2018-09-08T03:59:19.815Z,99271.62
2018-09-08T03:59:50.988Z,99262.75
2018-09-08T04:00:22.212Z,99263.70
2018-09-08T04:00:53.320Z,99266.34
2018-09-08T04:01:24.502Z,99265.95
2018-09-08T04:01:55.677Z,99268.98
2018-09-08T04:02:26.913Z,99264.19
2018-09-08T04:02:58.107Z,99270.67
2018-09-08T04:03:29.224Z,99271.06
2018-09-08T04:04:00.372Z,99270.67
2018-09-08T04:04:31.548Z,99270.19
2018-09-08T04:05:02.661Z,99269.84
2018-09-08T04:05:33.784Z,99270.30
2018-09-08T04:06:04.920Z,99272.55
2018-09-08T04:06:36.029Z,99267.27
2018-09-08T04:07:07.143Z,99273.88
2018-09-08T04:07:38.297Z,99267.38
2018-09-08T04:08:09.408Z,99277.66
2018-09-08T04:08:40.569Z,99271.27
2018-09-08T04:09:11.703Z,99269.09
2018-09-08T04:09:42.819Z,99275.79
2018-09-08T04:10:14.000Z,99272.77
2018-09-08T04:10:45.172Z,99275.79
2018-09-08T04:11:16.350Z,99271.55
2018-09-08T04:11:47.491Z,99275.66
2018-09-08T04:12:18.613Z,99272.01
2018-09-08T04:12:49.873Z,99269.44
2018-09-08T04:13:21.009Z,99271.24
2018-09-08T04:13:52.177Z,99264.54
2018-09-08T04:14:23.363Z,99268.22
2018-09-08T04:14:54.486Z,99272.11
2018-09-08T04:15:25.602Z,99272.20
2018-09-08T04:15:56.824Z,99268.14
2018-09-08T04:16:27.997Z,99276.30
2018-09-08T04:16:59.129Z,99273.84
2018-09-08T04:17:30.246Z,99272.67
2018-09-08T04:18:01.503Z,99278.00
2018-09-08T04:18:32.580Z,99266.63
2018-09-08T04:19:03.753Z,99277.64
2018-09-08T04:19:34.880Z,99278.03
2018-09-08T04:20:05.996Z,99268.80
2018-09-08T04:20:37.226Z,99267.97
2018-09-08T04:21:08.408Z,99265.92
2018-09-08T04:21:39.586Z,99267.84
2018-09-08T04:22:10.757Z,99269.27
2018-09-08T04:22:41.989Z,99265.59
2018-09-08T04:23:13.208Z,99266.78
2018-09-08T04:23:44.323Z,99269.06
2018-09-08T04:24:15.440Z,99269.30
2018-09-08T04:24:46.636Z,99266.84
2018-09-08T04:25:17.748Z,99269.69
2018-09-08T04:25:48.875Z,99267.86
2018-09-08T04:26:20.042Z,99266.85
2018-09-08T04:26:51.164Z,99263.46
2018-09-08T04:27:22.294Z,99263.84
2018-09-08T04:27:53.472Z,99264.59
2018-09-08T04:28:24.588Z,99266.34
2018-09-08T04:28:55.705Z,99267.67
2018-09-08T04:29:26.958Z,99269.75
2018-09-08T04:29:58.104Z,99272.89
2018-09-08T04:30:29.275Z,99265.34
2018-09-08T04:31:00.463Z,99267.29
2018-09-08T04:31:31.693Z,99269.98
2018-09-08T04:32:02.835Z,99272.16
2018-09-08T04:32:34.016Z,99273.86
2018-09-08T04:33:05.197Z,99275.93
2018-09-08T04:33:36.377Z,99275.31
2018-09-08T04:34:07.579Z,99272.47
2018-09-08T04:34:38.771Z,99270.65
2018-09-08T04:35:09.960Z,99273.98
2018-09-08T04:35:41.131Z,99279.66
2018-09-08T04:36:12.328Z,99274.61
2018-09-08T04:36:43.505Z,99275.31
2018-09-08T04:37:14.676Z,99275.00
2018-09-08T04:37:45.800Z,99276.83
2018-09-08T04:38:16.924Z,99274.66
2018-09-08T04:38:48.052Z,99278.77
2018-09-08T04:39:19.240Z,99283.60
2018-09-08T04:39:50.380Z,99275.88
2018-09-08T04:40:21.560Z,99280.60
2018-09-08T04:40:52.763Z,99280.97
2018-09-08T04:41:23.964Z,99279.27
2018-09-08T04:41:55.169Z,99283.62
2018-09-08T04:42:26.408Z,99280.25
2018-09-08T04:42:57.607Z,99279.41
2018-09-08T04:43:28.716Z,99286.05
2018-09-08T04:43:59.837Z,99284.82
2018-09-08T04:44:31.080Z,99283.72
2018-09-08T04:45:02.205Z,99284.09
2018-09-08T04:45:33.389Z,99286.03
2018-09-08T04:46:04.606Z,99284.95
2018-09-08T04:46:35.781Z,99282.80
2018-09-08T04:47:07.007Z,99285.59
2018-09-08T04:47:38.130Z,99286.07
2018-09-08T04:48:09.317Z,99283.41
2018-09-08T04:48:40.441Z,99287.14
2018-09-08T04:49:11.668Z,99282.45
2018-09-08T04:49:42.769Z,99288.36
2018-09-08T04:50:13.881Z,99286.68
2018-09-08T04:50:45.013Z,99282.94
2018-09-08T04:51:16.132Z,99288.73
2018-09-08T04:51:47.357Z,99289.94
2018-09-08T04:52:18.621Z,99295.51
2018-09-08T04:52:49.832Z,99295.76
2018-09-08T04:53:20.959Z,99296.84
2018-09-08T04:53:52.077Z,99292.95
2018-09-08T04:54:23.192Z,99298.15
2018-09-08T04:54:54.308Z,99295.10
2018-09-08T04:55:25.424Z,99294.61
2018-09-08T04:55:56.619Z,99295.58
2018-09-08T04:56:27.798Z,99297.97
2018-09-08T04:56:58.978Z,99298.10
2018-09-08T04:57:30.172Z,99291.09
2018-09-08T04:58:01.324Z,99294.38
2018-09-08T04:58:32.455Z,99296.91
2018-09-08T04:59:03.623Z,99293.02
2018-09-08T04:59:34.801Z,99296.51
2018-09-08T05:00:05.970Z,99292.28
2018-09-08T05:00:37.091Z,99292.02
2018-09-08T05:01:08.217Z,99296.70
2018-09-08T05:01:39.332Z,99292.11
2018-09-08T05:02:10.471Z,99294.76
2018-09-08T05:02:41.681Z,99288.42
2018-09-08T05:03:12.805Z,99291.41
2018-09-08T05:03:43.918Z,99288.00
2018-09-08T05:04:15.096Z,99287.39
2018-09-08T05:04:46.204Z,99287.48
2018-09-08T05:05:17.364Z,99287.94
2018-09-08T05:05:48.547Z,99289.56
2018-09-08T05:06:19.675Z,99288.32
2018-09-08T05:06:50.835Z,99285.45
2018-09-08T05:07:21.952Z,99289.89
2018-09-08T05:07:53.072Z,99291.45
2018-09-08T05:08:24.301Z,99290.11
2018-09-08T05:08:55.519Z,99292.28
2018-09-08T05:09:26.701Z,99290.80
2018-09-08T05:09:57.821Z,99289.23
2018-09-08T05:10:28.944Z,99289.47
2018-09-08T05:11:00.126Z,99289.84
2018-09-08T05:11:31.255Z,99292.42
2018-09-08T05:12:02.432Z,99292.95
2018-09-08T05:12:33.617Z,99290.34
2018-09-08T05:13:04.782Z,99290.13
2018-09-08T05:13:35.895Z,99293.65
2018-09-08T05:14:07.070Z,99298.13
2018-09-08T05:14:38.188Z,99292.91
2018-09-08T05:15:09.357Z,99290.80
2018-09-08T05:15:40.468Z,99295.09
2018-09-08T05:16:11.571Z,99297.56
2018-09-08T05:16:42.746Z,99295.64
2018-09-08T05:17:14.000Z,99301.38
2018-09-08T05:17:45.113Z,99299.87
2018-09-08T05:18:16.260Z,99303.09
2018-09-08T05:18:47.433Z,99300.20
2018-09-08T05:19:18.548Z,99304.06
2018-09-08T05:19:49.734Z,99298.04
2018-09-08T05:20:20.849Z,99295.52
2018-09-08T05:20:51.962Z,99304.06
2018-09-08T05:21:23.076Z,99305.11
2018-09-08T05:21:54.242Z,99304.13
2018-09-08T05:22:25.408Z,99307.81
2018-09-08T05:22:56.535Z,99305.86
2018-09-08T05:23:27.759Z,99309.14
2018-09-08T05:23:58.940Z,99307.81
2018-09-08T05:24:30.109Z,99307.87
2018-09-08T05:25:01.233Z,99304.81
2018-09-08T05:25:32.354Z,99307.05
2018-09-08T05:26:03.581Z,99308.09
2018-09-08T05:26:34.752Z,99306.08
2018-09-08T05:27:05.926Z,99308.96
2018-09-08T05:27:37.124Z,99307.98
2018-09-08T05:28:08.280Z,99308.81
2018-09-08T05:28:39.424Z,99307.41
2018-09-08T05:29:10.545Z,99303.99
2018-09-08T05:29:41.716Z,99310.19
2018-09-08T05:30:12.879Z,99308.75
2018-09-08T05:30:44.012Z,99303.77
2018-09-08T05:31:15.136Z,99305.69
2018-09-08T05:31:46.262Z,99310.45
2018-09-08T05:32:17.441Z,99308.89
2018-09-08T05:32:48.600Z,99311.78
2018-09-08T05:33:19.776Z,99312.86
2018-09-08T05:33:50.898Z,99308.86
2018-09-08T05:34:22.051Z,99311.78
2018-09-08T05:34:53.289Z,99307.48
2018-09-08T05:35:24.453Z,99313.50
2018-09-08T05:35:55.636Z,99313.58
2018-09-08T05:36:26.809Z,99311.62
2018-09-08T05:36:57.987Z,99312.64
2018-09-08T05:37:29.241Z,99312.31
2018-09-08T05:38:00.371Z,99312.78
2018-09-08T05:38:31.486Z,99310.98
2018-09-08T05:39:02.652Z,99310.52
2018-09-08T05:39:33.790Z,99317.72
2018-09-08T05:40:05.017Z,99283.98
2018-09-08T05:40:36.153Z,99309.89
2018-09-08T05:41:08.264Z,99306.64
2018-09-08T05:41:39.456Z,99310.20
2018-09-08T05:42:10.585Z,99308.72
2018-09-08T05:42:41.707Z,99310.41
2018-09-08T05:43:12.837Z,99309.36
2018-09-08T05:43:44.077Z,99317.66
2018-09-08T05:44:15.292Z,99310.11
2018-09-08T05:44:46.473Z,99304.00
2018-09-08T05:45:17.661Z,99310.80
2018-09-08T05:45:48.824Z,99310.39
2018-09-08T05:46:20.001Z,99313.42
2018-09-08T05:46:51.121Z,99314.55
2018-09-08T05:47:22.277Z,99309.21
2018-09-08T05:47:53.406Z,99317.43
2018-09-08T05:48:24.564Z,99310.03
2018-09-08T05:48:56.799Z,99316.24
2018-09-08T05:49:28.018Z,99317.43
2018-09-08T05:49:59.202Z,99317.58
2018-09-08T05:50:30.433Z,99301.20
2018-09-08T05:51:01.680Z,99311.59
2018-09-08T05:51:32.865Z,99315.12
2018-09-08T05:52:04.108Z,99307.47
2018-09-08T05:52:35.231Z,99301.13
2018-09-08T05:53:06.351Z,99309.91
2018-09-08T05:53:37.527Z,99314.80
2018-09-08T05:54:08.665Z,99313.63
2018-09-08T05:54:39.853Z,99311.44
2018-09-08T05:55:11.069Z,99312.91
2018-09-08T05:55:42.196Z,99312.70
2018-09-08T05:56:13.402Z,99313.39
2018-09-08T05:56:44.638Z,99317.61
2018-09-08T05:57:15.820Z,99310.65
2018-09-08T05:57:47.016Z,99315.33
2018-09-08T05:58:18.180Z,99314.56
2018-09-08T05:58:49.353Z,99315.59
2018-09-08T05:59:20.481Z,99311.80
2018-09-08T05:59:51.740Z,99314.32
2018-09-08T06:00:22.910Z,99313.36
2018-09-08T06:00:54.039Z,99309.75
2018-09-08T06:01:25.160Z,99306.77
2018-09-08T06:01:56.280Z,99318.13
2018-09-08T06:02:27.457Z,99319.20
2018-09-08T06:02:58.578Z,99314.26
2018-09-08T06:03:29.757Z,99312.12
2018-09-08T06:04:00.871Z,99313.63
2018-09-08T06:04:31.988Z,99305.67
2018-09-08T06:05:03.171Z,99313.89
2018-09-08T06:05:34.389Z,99312.56
2018-09-08T06:06:05.581Z,99312.30
2018-09-08T06:06:36.816Z,99314.14